Memphis, TN (37501)

10:45 AM CDT on August 31, 2015 (GMT -0500)
Midtown Memphis (OEM) | | Change Station
CLOSE
Current Station
Personal Weather Station
Location: Memphis, TN
Elevation: 320 ft
Nearby Weather Stations

Elev 320 ft 35.13 °N, 89.97 °W | Updated 31 seconds ago

Partly Cloudy
Partly Cloudy
83.5 °F
Feels Like 89 °F
N
2.0
Wind Variable Wind from ESE
Gusts 11.0 mph

Today
High -- | Low -- °F
--% Chance of Precip.
Yesterday
High -- | Low -- °F
Precip. -- in
6:31 AM 7:28 PM
Waning Gibbous, 95% visible
Pressure 30.10 in
Visibility 10.0 miles
Clouds Few 25000 ft
Heat Index 89 °F
Dew Point 71 °F
Humidity 67%
Rainfall 0.00 in
Snow Depth Not available.
UV 5 out of 12
Pollen 9.40 out of 12
Air Quality Not available.
Flu Activity Not available.
METAR KMEM 311454Z 13004KT 10SM FEW250 27/19 A3011 RMK AO2 SLP192 T02670194 51010
Pressure 30.10 in
Visibility 10.0 miles
Clouds Few 25000 ft
Heat Index 89 °F
Dew Point 71 °F
Humidity 67%
Rainfall 0.00 in
Snow Depth Not available.
UV 5 out of 12
Pollen 9.40 out of 12
Air Quality Not available.
Flu Activity Not available.
METAR KMEM 311454Z 13004KT 10SM FEW250 27/19 A3011 RMK AO2 SLP192 T02670194 51010

10-Day Weather Forecast

×

Almanac

Astronomy

Aug. 31, 2015 Rise Set
Actual Time
Civil Twilight
Nautical Twilight
Astronomical Twilight
Moon
Length of Visible Light
Length of Day
Tomorrow will be .
, % of the Moon is Illuminated

Today's Extremes

State Highs State Lows

Community

WunderPhotos

Upload Photos

1,851,282 photos uploaded!

WunderBlogs® & News

Nearby

Air Quality

  Air Quality AQ Index Pollutant
Not available.

Snow Depth

Station Depth Elevation

Earthquake Activity

City Distance Mag. Time & Date
Minimum magnitude displayed is 2.5.

Coastal Water Temperatures

Place Temperature

Stations

Nearby Weather Stations

Station Location Temp. Windchill Dew Point Humidity Wind Precip. Elev Updated Type